Time;durP1;ratioP1;P1;durP2;ratioP2;P2;SDS_P1;SDS_P2;PMS_P1;PMS_P2;Temp;Humidity;BMP_temperature;BMP_pressure;BME280_temperature;BME280_humidity;BME280_pressure;Samples;Min_cycle;Max_cycle;Signal;HPM_P1;HPM_P2
2022/04/01 00:02:04;;;;;;;3.97;2.47;;;1.30;75.60;;;;;;4972094;28;20065;-84
2022/04/01 00:04:29;;;;;;;7.60;2.70;;;1.30;75.40;;;;;;4979077;28;20054;-84
2022/04/01 00:06:55;;;;;;;5.90;2.70;;;1.40;75.50;;;;;;4962509;28;20042;-84
2022/04/01 00:09:21;;;;;;;6.53;2.43;;;1.40;75.50;;;;;;4995642;28;20050;-85
2022/04/01 00:11:47;;;;;;;4.23;2.13;;;1.40;75.50;;;;;;4996087;28;20042;-84
2022/04/01 00:14:12;;;;;;;4.93;2.33;;;1.40;75.40;;;;;;5001767;28;20477;-84
2022/04/01 00:16:38;;;;;;;4.60;2.27;;;1.40;75.60;;;;;;4981715;28;20050;-85
2022/04/01 00:19:03;;;;;;;4.63;2.37;;;1.40;75.40;;;;;;4995905;28;20045;-83
2022/04/01 00:21:29;;;;;;;3.93;2.07;;;1.40;75.80;;;;;;4962645;28;20100;-85
2022/04/01 00:23:55;;;;;;;4.53;1.60;;;1.30;75.30;;;;;;4960906;28;20406;-84
2022/04/01 00:26:20;;;;;;;3.87;2.20;;;1.60;75.40;;;;;;4979850;28;20133;-84
2022/04/01 00:28:46;;;;;;;3.70;2.00;;;1.40;75.20;;;;;;4997132;28;20054;-84
2022/04/01 00:31:12;;;;;;;6.13;1.90;;;1.60;75.20;;;;;;4981050;28;20046;-84
2022/04/01 00:33:37;;;;;;;4.67;1.90;;;1.40;75.10;;;;;;4974177;28;20066;-84
2022/04/01 00:36:03;;;;;;;3.97;2.20;;;1.40;74.80;;;;;;4991704;28;20054;-84
2022/04/01 00:38:29;;;;;;;4.17;1.90;;;1.40;74.90;;;;;;4978501;28;20465;-84
2022/04/01 00:40:56;;;;;;;3.67;2.07;;;1.40;74.90;;;;;;4996126;28;20078;-85
2022/04/01 00:43:30;;;;;;;5.33;2.80;;;1.40;75.00;;;;;;4976905;28;20047;-85
2022/04/01 00:45:57;;;;;;;3.95;2.17;;;1.30;75.00;;;;;;4994180;28;20116;-84
2022/04/01 00:48:24;;;;;;;5.80;3.13;;;1.80;75.20;;;;;;4977922;28;20121;-84
2022/04/01 00:50:50;;;;;;;4.73;2.00;;;1.40;75.00;;;;;;4961969;28;20101;-83
2022/04/01 00:53:19;;;;;;;7.23;2.20;;;1.30;74.80;;;;;;4977572;28;20161;-83
2022/04/01 00:55:46;;;;;;;4.07;1.83;;;1.30;74.90;;;;;;4995053;28;20078;-84
2022/04/01 00:58:12;;;;;;;4.13;1.73;;;1.30;75.00;;;;;;4994678;28;20034;-84
2022/04/01 01:00:38;;;;;;;5.10;2.47;;;1.30;74.80;;;;;;4976843;28;20046;-84
2022/04/01 01:03:07;;;;;;;7.37;2.00;;;1.30;75.00;;;;;;4977963;28;20046;-84
2022/04/01 01:05:33;;;;;;;5.53;1.93;;;1.30;75.10;;;;;;4992937;28;20540;-84
2022/04/01 01:08:05;;;;;;;3.87;1.80;;;1.30;75.00;;;;;;4977125;28;20489;-83
2022/04/01 01:10:31;;;;;;;6.20;2.60;;;1.30;74.90;;;;;;4976109;28;20500;-84
2022/04/01 01:12:56;;;;;;;3.40;1.80;;;1.30;75.00;;;;;;4994183;28;20125;-83
2022/04/01 01:15:25;;;;;;;4.97;1.73;;;1.40;75.20;;;;;;4993998;28;20378;-84
2022/04/01 01:17:50;;;;;;;6.63;2.33;;;1.30;75.10;;;;;;4977576;28;20050;-83
2022/04/01 01:20:17;;;;;;;6.87;2.23;;;1.30;74.80;;;;;;4993133;28;20041;-82
2022/04/01 01:22:47;;;;;;;4.30;2.00;;;1.30;74.80;;;;;;4977820;28;20065;-83
2022/04/01 01:25:14;;;;;;;3.93;2.00;;;1.30;74.70;;;;;;4976560;28;20046;-84
2022/04/01 01:27:41;;;;;;;4.57;1.70;;;1.30;74.30;;;;;;4976868;28;20074;-83
2022/04/01 01:30:10;;;;;;;3.73;1.70;;;1.30;74.30;;;;;;4995117;28;20042;-82
2022/04/01 01:32:37;;;;;;;6.53;2.00;;;1.30;74.20;;;;;;4978180;28;20086;-82
2022/04/01 01:35:04;;;;;;;5.07;1.90;;;1.80;74.30;;;;;;4970933;28;20049;-82
2022/04/01 01:37:30;;;;;;;5.87;1.77;;;1.30;73.90;;;;;;4991611;28;20050;-83
2022/04/01 01:39:56;;;;;;;7.57;2.30;;;1.40;73.60;;;;;;4976685;28;20126;-83
2022/04/01 01:42:22;;;;;;;2.97;1.70;;;1.40;73.30;;;;;;4977246;28;20138;-83
2022/04/01 01:44:47;;;;;;;3.33;1.93;;;1.70;73.40;;;;;;4994451;28;20393;-84
2022/04/01 01:47:13;;;;;;;4.77;1.73;;;1.60;72.90;;;;;;4960420;28;20090;-83
2022/04/01 01:54:42;;;;;;;4.27;1.90;;;1.50;72.60;;;;;;4994142;28;20069;-84
2022/04/01 01:55:08;;;;;;;5.03;1.80;;;2.00;72.40;;;;;;4994119;28;20108;-85
2022/04/01 01:57:35;;;;;;;3.07;1.90;;;1.50;72.10;;;;;;4959928;28;20046;-84
2022/04/01 02:00:10;;;;;;;5.30;1.90;;;1.50;71.50;;;;;;4960572;28;20078;-84
2022/04/01 02:02:37;;;;;;;4.87;2.03;;;1.60;71.70;;;;;;4987313;28;20046;-85
2022/04/01 02:05:03;;;;;;;4.67;2.40;;;1.50;71.60;;;;;;4972181;28;20490;-84
2022/04/01 02:07:28;;;;;;;4.93;2.10;;;1.60;71.80;;;;;;4976181;28;20043;-84
2022/04/01 02:09:54;;;;;;;6.80;2.30;;;1.50;71.70;;;;;;4993742;28;20482;-83
2022/04/01 02:12:20;;;;;;;4.77;2.20;;;1.50;72.00;;;;;;4994000;28;20034;-82
2022/04/01 02:14:46;;;;;;;5.60;2.20;;;1.50;72.00;;;;;;4980594;28;20173;-83
2022/04/01 02:17:11;;;;;;;4.80;2.00;;;1.50;72.10;;;;;;4976557;28;20386;-83
2022/04/01 02:19:37;;;;;;;5.10;2.20;;;1.50;72.30;;;;;;4959298;28;20035;-84
2022/04/01 02:22:05;;;;;;;4.60;2.20;;;1.50;72.30;;;;;;4994340;28;20044;-84
2022/04/01 02:24:31;;;;;;;3.53;1.53;;;1.50;72.30;;;;;;4975875;28;20057;-84
2022/04/01 02:26:56;;;;;;;5.30;2.30;;;1.50;72.30;;;;;;4992689;28;20042;-84
2022/04/01 02:29:23;;;;;;;3.80;2.30;;;1.90;72.30;;;;;;4975547;28;20047;-83
2022/04/01 02:31:50;;;;;;;5.13;1.97;;;1.40;72.00;;;;;;4976047;28;20038;-84
2022/04/01 02:34:17;;;;;;;5.10;2.20;;;1.50;71.90;;;;;;4959621;28;20042;-84
2022/04/01 02:36:43;;;;;;;4.40;1.80;;;1.40;71.70;;;;;;4993324;28;20089;-84
2022/04/01 02:39:09;;;;;;;2.70;1.73;;;1.40;71.60;;;;;;4992203;28;20465;-83
2022/04/01 02:41:35;;;;;;;3.20;1.70;;;1.40;71.40;;;;;;4993479;28;20107;-85
2022/04/01 02:44:12;;;;;;;4.67;2.30;;;1.40;71.40;;;;;;4992980;28;20352;-84
2022/04/01 02:46:43;;;;;;;4.37;1.97;;;1.50;71.00;;;;;;4993527;28;20398;-84
2022/04/01 02:49:15;;;;;;;4.03;1.70;;;1.40;71.00;;;;;;4975638;28;20398;-85
2022/04/01 02:51:42;;;;;;;5.13;1.90;;;1.50;70.70;;;;;;4978742;28;20057;-85
2022/04/01 02:54:09;;;;;;;3.27;2.00;;;1.40;70.80;;;;;;4979765;28;20122;-83
2022/04/01 02:56:36;;;;;;;2.87;1.60;;;1.90;71.10;;;;;;4979040;28;20038;-82
2022/04/01 02:59:06;;;;;;;4.13;1.90;;;1.50;70.50;;;;;;4997856;28;20060;-84
2022/04/01 03:01:33;;;;;;;3.20;1.60;;;2.00;70.60;;;;;;4997000;28;20046;-85
2022/04/01 03:03:59;;;;;;;5.30;2.17;;;1.50;70.60;;;;;;4964403;28;20502;-85
2022/04/01 03:06:24;;;;;;;5.07;2.17;;;2.00;70.90;;;;;;4963257;28;20117;-84
2022/04/01 03:08:50;;;;;;;3.33;1.73;;;1.50;70.50;;;;;;4997152;28;20084;-85
2022/04/01 03:11:17;;;;;;;4.97;1.97;;;2.00;70.70;;;;;;4996742;28;20154;-85
2022/04/01 03:13:43;;;;;;;4.40;2.00;;;1.50;70.30;;;;;;4996828;28;20065;-85
2022/04/01 03:16:09;;;;;;;3.73;1.70;;;1.50;70.40;;;;;;4979562;28;20049;-85
2022/04/01 03:18:40;;;;;;;4.13;1.80;;;1.50;70.30;;;;;;4996890;28;20034;-83
2022/04/01 03:21:09;;;;;;;3.50;1.80;;;1.50;70.30;;;;;;4996361;28;20525;-83
2022/04/01 03:23:39;;;;;;;3.73;1.97;;;1.50;70.20;;;;;;4979362;28;20043;-85
2022/04/01 03:26:06;;;;;;;3.83;1.80;;;1.50;70.00;;;;;;4996697;28;20359;-84
2022/04/01 03:28:33;;;;;;;3.30;1.50;;;1.50;69.80;;;;;;4979143;28;20047;-85
2022/04/01 03:30:58;;;;;;;5.40;1.40;;;1.60;69.50;;;;;;4996581;28;20561;-84
2022/04/01 03:33:24;;;;;;;3.67;1.70;;;1.50;69.20;;;;;;4994670;28;20160;-84
2022/04/01 03:35:50;;;;;;;4.53;1.53;;;1.60;69.50;;;;;;4996302;28;20046;-85
2022/04/01 03:38:16;;;;;;;3.60;1.80;;;1.60;69.40;;;;;;4979140;28;20137;-82
2022/04/01 03:40:43;;;;;;;4.07;1.37;;;1.60;69.30;;;;;;4996181;28;20153;-83
2022/04/01 03:43:09;;;;;;;4.83;1.43;;;1.60;68.90;;;;;;4996588;28;20049;-83
2022/04/01 03:45:35;;;;;;;3.80;1.37;;;1.60;69.20;;;;;;4996573;28;20489;-83
2022/04/01 03:48:28;;;;;;;3.13;1.47;;;1.70;68.90;;;;;;4979045;28;20042;-83
2022/04/01 03:50:59;;;;;;;5.77;1.60;;;1.70;68.80;;;;;;4898009;29;20057;-84
2022/04/01 03:53:30;;;;;;;3.23;2.00;;;1.70;68.90;;;;;;4882947;29;20205;-84
2022/04/01 03:55:58;;;;;;;3.23;1.70;;;1.70;68.50;;;;;;4867205;29;20133;-84
2022/04/01 03:58:31;;;;;;;4.90;1.67;;;1.80;68.60;;;;;;4882711;29;20037;-85
2022/04/01 04:01:02;;;;;;;3.27;1.63;;;1.80;68.50;;;;;;4865661;29;20084;-84
2022/04/01 04:03:29;;;;;;;2.63;1.53;;;1.80;68.50;;;;;;4897216;29;20056;-85
2022/04/01 04:05:57;;;;;;;3.27;1.70;;;1.80;68.50;;;;;;4897876;29;20569;-84
2022/04/01 04:08:24;;;;;;;4.57;2.00;;;1.80;68.10;;;;;;4882459;29;20064;-84
2022/04/01 04:10:51;;;;;;;6.07;1.50;;;1.80;67.60;;;;;;4882735;29;20048;-84
2022/04/01 04:13:19;;;;;;;2.87;1.40;;;1.90;67.40;;;;;;4897811;29;20041;-84
2022/04/01 04:16:19;;;;;;;2.93;1.43;;;2.30;67.50;;;;;;4897463;29;20117;-85
2022/04/01 04:18:51;;;;;;;3.13;1.40;;;1.90;67.20;;;;;;4870008;29;20044;-85
2022/04/01 04:21:38;;;;;;;3.67;1.27;;;1.90;67.40;;;;;;4882009;29;20072;-84
2022/04/01 04:24:06;;;;;;;4.70;1.50;;;1.90;67.30;;;;;;4878954;29;20524;-84
2022/04/01 04:26:37;;;;;;;2.90;1.43;;;1.90;67.10;;;;;;4880962;29;20036;-84
2022/04/01 04:29:12;;;;;;;2.63;1.53;;;2.40;67.50;;;;;;4992167;28;20120;-85
2022/04/01 04:31:47;;;;;;;3.50;1.20;;;2.00;67.20;;;;;;4978392;28;20445;-84
2022/04/01 04:34:17;;;;;;;2.57;1.47;;;2.00;67.40;;;;;;4978881;28;20141;-84
2022/04/01 04:36:43;;;;;;;2.47;1.50;;;2.00;67.30;;;;;;4994774;28;20073;-84
2022/04/01 04:39:31;;;;;;;2.83;1.60;;;2.00;67.40;;;;;;4982124;28;20054;-84
2022/04/01 04:41:57;;;;;;;2.90;1.40;;;2.00;67.20;;;;;;4984327;28;20401;-84
2022/04/01 04:44:25;;;;;;;2.00;1.20;;;2.00;67.20;;;;;;4994751;28;20406;-85
2022/04/01 04:46:53;;;;;;;4.23;1.57;;;2.00;67.30;;;;;;4977702;28;20084;-85
2022/04/01 04:49:20;;;;;;;3.30;1.60;;;2.10;67.40;;;;;;4976618;28;20244;-85
2022/04/01 04:51:50;;;;;;;5.43;1.50;;;2.10;67.40;;;;;;4995441;28;20157;-84
2022/04/01 04:54:19;;;;;;;3.37;1.23;;;2.10;67.50;;;;;;4969292;28;20049;-85
2022/04/01 04:56:45;;;;;;;5.47;1.47;;;2.10;67.40;;;;;;4960823;28;20034;-85
2022/04/01 04:59:12;;;;;;;2.70;1.43;;;2.10;67.30;;;;;;4993863;28;20075;-86
2022/04/01 05:02:10;;;;;;;5.33;1.60;;;2.40;67.40;;;;;;4977589;28;20402;-84
2022/04/01 05:04:39;;;;;;;5.33;1.33;;;2.20;67.00;;;;;;4977007;28;20045;-84
2022/04/01 05:07:33;;;;;;;7.23;1.63;;;2.20;67.10;;;;;;4994624;28;20053;-84
2022/04/01 05:10:29;;;;;;;4.60;2.05;;;2.20;67.20;;;;;;4971548;28;20052;-85
2022/04/01 05:13:03;;;;;;;;;;;2.30;67.10;;;;;;4964349;28;20069;-85
2022/04/01 05:15:31;;;;;;;4.37;1.40;;;2.20;67.10;;;;;;4984136;28;19922;-85
2022/04/01 05:18:10;;;;;;;3.07;1.30;;;2.30;67.30;;;;;;4967941;28;20053;-85
2022/04/01 05:20:38;;;;;;;3.70;1.20;;;2.30;67.20;;;;;;4992563;28;20089;-83
2022/04/01 05:23:15;;;;;;;3.97;1.20;;;2.50;67.30;;;;;;4993525;28;20624;-83
2022/04/01 05:26:04;;;;;;;4.97;1.30;;;2.30;67.10;;;;;;4994777;28;20109;-84
2022/04/01 05:28:34;;;;;;;4.17;1.33;;;2.30;66.80;;;;;;4975624;28;20058;-85
2022/04/01 05:31:12;;;;;;;4.13;1.37;;;2.30;67.00;;;;;;4994077;28;20074;-84
2022/04/01 05:34:16;;;;;;;4.70;1.10;;;2.30;67.20;;;;;;4977242;28;20050;-84
2022/04/01 05:36:42;;;;;;;3.27;0.90;;;2.30;66.80;;;;;;4976366;28;20062;-84
2022/04/01 05:39:09;;;;;;;2.40;1.00;;;2.30;66.80;;;;;;4991659;28;20498;-85
2022/04/01 05:41:36;;;;;;;3.50;1.13;;;2.30;66.70;;;;;;4975930;28;20046;-84
2022/04/01 05:44:04;;;;;;;2.80;1.10;;;2.40;66.60;;;;;;4976148;28;20069;-85
2022/04/01 05:46:30;;;;;;;3.53;1.00;;;2.40;66.40;;;;;;4976972;28;20073;-85
2022/04/01 05:48:57;;;;;;;5.13;1.50;;;2.40;66.10;;;;;;4995563;28;20042;-90
2022/04/01 05:51:24;;;;;;;4.00;1.50;;;2.40;65.90;;;;;;4978118;28;20054;-90
2022/04/01 05:53:51;;;;;;;2.83;1.03;;;2.40;66.10;;;;;;4996066;28;20050;-90
2022/04/01 05:56:17;;;;;;;4.10;1.00;;;2.40;65.80;;;;;;4962585;28;20049;-89
2022/04/01 05:59:36;;;;;;;3.47;1.17;;;2.40;65.90;;;;;;4996242;28;20054;-88
2022/04/01 06:02:16;;;;;;;3.50;1.07;;;2.40;65.30;;;;;;4977221;28;20081;-88
2022/04/01 06:04:56;;;;;;;3.27;1.13;;;2.40;65.80;;;;;;4994238;28;20050;-88
2022/04/01 06:07:48;;;;;;;3.33;1.20;;;2.40;65.70;;;;;;4977216;28;20092;-88
2022/04/01 06:10:23;;;;;;;3.10;0.87;;;2.40;65.80;;;;;;4975429;28;20050;-88
2022/04/01 06:12:58;;;;;;;3.17;1.47;;;2.40;65.70;;;;;;4985473;28;20042;-88
2022/04/01 06:15:57;;;;;;;3.33;1.17;;;2.50;65.70;;;;;;4947517;28;20055;-88
2022/04/01 06:18:44;;;;;;;3.60;1.10;;;2.50;65.20;;;;;;4963017;28;20074;-89
2022/04/01 06:21:15;;;;;;;3.77;1.30;;;2.50;65.20;;;;;;4977399;28;20372;-88
2022/04/01 06:23:47;;;;;;;4.10;1.30;;;2.60;65.30;;;;;;4957669;28;20047;-92
2022/04/01 06:26:14;;;;;;;3.10;1.17;;;2.50;64.90;;;;;;4952218;28;20069;-90
2022/04/01 06:29:10;;;;;;;3.43;1.13;;;2.60;64.40;;;;;;4973192;28;20069;-83
2022/04/01 06:31:36;;;;;;;3.13;0.90;;;2.60;64.20;;;;;;4997694;28;20383;-88
2022/04/01 06:34:19;;;;;;;4.93;1.03;;;2.60;64.60;;;;;;4964804;28;20045;-89
2022/04/01 06:36:49;;;;;;;6.27;1.60;;;2.40;64.50;;;;;;4998071;28;20057;-88
2022/04/01 06:39:33;;;;;;;6.00;1.67;;;3.10;64.50;;;;;;4998390;28;20054;-89
2022/04/01 06:41:59;;;;;;;2.77;1.00;;;2.80;64.00;;;;;;4965038;28;20068;-89
2022/04/01 06:44:25;;;;;;;3.67;1.00;;;2.80;64.10;;;;;;4998372;28;20053;-89
2022/04/01 06:46:51;;;;;;;3.97;1.20;;;2.80;64.00;;;;;;4977177;28;20038;-89
2022/04/01 06:49:18;;;;;;;5.57;1.10;;;2.90;64.00;;;;;;4993012;28;20475;-88
2022/04/01 06:51:44;;;;;;;6.40;2.10;;;2.90;64.10;;;;;;4998371;28;20049;-89
2022/04/01 06:54:10;;;;;;;4.13;1.40;;;2.90;64.00;;;;;;4964730;28;20046;-88
2022/04/01 06:56:35;;;;;;;3.30;1.27;;;3.00;63.70;;;;;;4998042;28;20846;-88
2022/04/01 06:59:01;;;;;;;2.38;1.25;;;3.40;63.90;;;;;;4999898;28;20084;-89
2022/04/01 07:01:28;;;;;;;3.33;1.27;;;3.10;63.70;;;;;;4964623;28;20050;-89
2022/04/01 07:03:53;;;;;;;2.65;0.90;;;3.00;63.60;;;;;;4981017;28;20065;-89
2022/04/01 07:06:20;;;;;;;3.73;1.20;;;3.00;63.60;;;;;;4964319;28;20046;-89
2022/04/01 07:08:49;;;;;;;5.33;1.20;;;3.10;63.20;;;;;;4980814;28;20050;-87
2022/04/01 07:11:15;;;;;;;3.80;0.90;;;3.10;62.90;;;;;;4999552;28;20056;-89
2022/04/01 07:13:41;;;;;;;3.73;1.30;;;3.10;63.00;;;;;;4980665;28;20493;-89
2022/04/01 07:16:07;;;;;;;4.20;1.60;;;3.50;63.10;;;;;;4980311;28;20043;-88
2022/04/01 07:18:33;;;;;;;5.50;1.50;;;3.60;62.50;;;;;;4980326;28;20095;-89
2022/04/01 07:21:00;;;;;;;3.27;1.10;;;3.20;62.20;;;;;;4980650;28;20082;-89
2022/04/01 07:23:27;;;;;;;3.80;1.47;;;3.20;61.50;;;;;;4980383;28;20038;-89
2022/04/01 07:25:52;;;;;;;3.92;1.20;;;3.20;61.20;;;;;;4980246;28;20367;-89
2022/04/01 07:28:18;;;;;;;4.23;1.13;;;3.20;61.60;;;;;;4996169;28;20044;-87
2022/04/01 07:30:44;;;;;;;2.08;1.30;;;3.20;62.00;;;;;;4981718;28;20409;-89
2022/04/01 07:33:10;;;;;;;4.33;1.60;;;3.30;62.30;;;;;;4975327;28;20402;-89
2022/04/01 07:35:37;;;;;;;3.43;1.20;;;3.20;62.00;;;;;;4980069;28;20079;-89
2022/04/01 07:38:07;;;;;;;2.67;1.30;;;3.30;62.30;;;;;;4979496;28;20082;-89
2022/04/01 07:40:33;;;;;;;3.67;1.40;;;3.30;62.10;;;;;;4997175;28;20057;-88
2022/04/01 07:42:58;;;;;;;4.07;1.17;;;3.30;62.30;;;;;;4986563;28;20042;-88
2022/04/01 07:45:24;;;;;;;6.00;1.77;;;3.30;62.20;;;;;;4982225;28;20042;-89
2022/04/01 07:47:51;;;;;;;4.30;1.30;;;3.70;62.70;;;;;;5003912;28;20034;-88
2022/04/01 07:50:20;;;;;;;2.45;0.90;;;3.80;62.50;;;;;;4985230;28;20050;-89
2022/04/01 07:52:46;;;;;;;2.87;1.40;;;3.30;62.20;;;;;;4980580;28;20513;-89
2022/04/01 07:55:14;;;;;;;5.30;1.40;;;3.30;61.80;;;;;;4997075;28;20074;-89
2022/04/01 07:57:39;;;;;;;4.23;1.40;;;3.30;61.70;;;;;;4963802;28;20069;-86
2022/04/01 08:00:07;;;;;;;5.13;1.87;;;3.30;62.40;;;;;;4979234;28;20493;-88
2022/04/01 08:02:34;;;;;;;4.13;1.23;;;3.30;62.10;;;;;;4978877;28;20561;-87
2022/04/01 08:04:59;;;;;;;5.83;1.63;;;3.30;61.90;;;;;;4978857;28;20046;-87
2022/04/01 08:07:26;;;;;;;6.47;1.20;;;3.30;62.10;;;;;;4996629;28;20042;-87
2022/04/01 08:09:53;;;;;;;3.40;1.27;;;3.30;62.50;;;;;;4994881;28;20590;-88
2022/04/01 08:12:19;;;;;;;3.33;1.20;;;3.30;62.50;;;;;;4963421;28;20133;-87
2022/04/01 08:14:45;;;;;;;5.85;2.17;;;3.60;62.60;;;;;;4994961;28;20038;-86
2022/04/01 08:17:14;;;;;;;2.90;1.20;;;3.20;62.50;;;;;;4995275;28;20125;-88
2022/04/01 08:19:41;;;;;;;2.43;1.20;;;3.10;63.00;;;;;;4979191;28;20169;-89
2022/04/01 08:22:08;;;;;;;3.77;1.50;;;3.10;63.60;;;;;;4950111;28;20043;-88
2022/04/01 08:24:34;;;;;;;5.53;1.47;;;3.10;64.10;;;;;;4962546;28;20445;-89
2022/04/01 08:27:00;;;;;;;4.07;1.23;;;3.00;64.30;;;;;;4978965;28;20054;-88
2022/04/01 08:29:30;;;;;;;4.70;1.70;;;3.30;65.20;;;;;;4996468;28;20046;-88
2022/04/01 08:31:56;;;;;;;4.37;1.30;;;3.50;66.20;;;;;;4978635;28;20404;-89
2022/04/01 08:34:23;;;;;;;6.87;1.70;;;3.00;66.70;;;;;;4996193;28;20046;-88
2022/04/01 08:36:49;;;;;;;3.73;1.40;;;3.00;66.90;;;;;;4977996;28;20142;-89
2022/04/01 08:39:15;;;;;;;3.67;1.60;;;3.00;67.20;;;;;;4978791;28;20050;-89
2022/04/01 08:41:41;;;;;;;5.00;1.73;;;3.00;67.90;;;;;;4996181;28;20121;-89
2022/04/01 08:44:06;;;;;;;4.40;1.67;;;3.00;68.50;;;;;;4962509;28;20046;-89
2022/04/01 08:46:32;;;;;;;2.60;1.40;;;3.00;68.20;;;;;;4961163;28;20070;-90
2022/04/01 08:48:59;;;;;;;4.97;1.60;;;2.90;68.80;;;;;;4993847;28;20137;-88
2022/04/01 08:51:26;;;;;;;3.00;1.40;;;2.90;69.30;;;;;;4996115;28;20046;-90
2022/04/01 08:53:52;;;;;;;4.43;1.80;;;2.90;69.70;;;;;;4979104;28;20050;-89
2022/04/01 08:56:21;;;;;;;4.53;1.40;;;2.80;70.00;;;;;;4979536;28;20042;-89
2022/04/01 08:58:47;;;;;;;7.00;2.13;;;2.80;70.10;;;;;;4978047;28;20084;-89
2022/04/01 09:01:51;;;;;;;8.23;2.60;;;2.80;70.50;;;;;;4978586;28;20042;-89
2022/04/01 09:04:22;;;;;;;4.50;2.17;;;2.80;70.60;;;;;;4995234;28;20049;-88
2022/04/01 09:06:50;;;;;;;7.30;2.80;;;2.80;70.70;;;;;;4962067;28;20073;-90
2022/04/01 09:09:27;;;;;;;6.57;3.70;;;2.80;69.70;;;;;;4961512;28;20046;-90
2022/04/01 09:12:15;;;;;;;6.40;2.70;;;2.70;69.80;;;;;;4995695;28;20501;-89
2022/04/01 09:14:59;;;;;;;4.77;3.17;;;2.70;70.10;;;;;;4974765;28;20129;-90
2022/04/01 09:17:46;;;;;;;5.22;3.30;;;2.80;69.60;;;;;;4958683;28;20565;-89
2022/04/01 09:20:14;;;;;;;5.60;2.93;;;2.90;68.80;;;;;;4994316;28;20061;-89
2022/04/01 09:22:41;;;;;;;5.27;3.50;;;3.00;69.40;;;;;;4978213;28;20367;-91
2022/04/01 09:25:09;;;;;;;4.83;3.13;;;3.30;69.00;;;;;;4978353;28;20038;-90
2022/04/01 09:27:44;;;;;;;6.83;3.60;;;2.90;68.90;;;;;;4978151;28;20045;-90
2022/04/01 09:30:12;;;;;;;;;;;2.90;69.00;;;;;;4982368;28;20387;-89
2022/04/01 09:32:44;;;;;;;6.77;3.67;;;2.90;67.70;;;;;;4963777;28;19929;-89
2022/04/01 09:35:11;;;;;;;7.83;4.27;;;2.90;68.50;;;;;;4994896;28;20050;-89
2022/04/01 09:37:44;;;;;;;7.03;4.40;;;3.00;68.90;;;;;;4961760;28;20125;-90
2022/04/01 09:40:14;;;;;;;6.43;3.63;;;3.10;68.90;;;;;;4973248;28;20453;-88
2022/04/01 09:43:00;;;;;;;6.60;3.90;;;3.20;68.30;;;;;;4996622;28;20422;-90
2022/04/01 09:45:28;;;;;;;7.53;3.73;;;3.30;66.40;;;;;;4977216;28;20050;-90
2022/04/01 09:48:03;;;;;;;7.25;4.00;;;3.40;66.80;;;;;;4977912;28;20080;-90
2022/04/01 09:50:32;;;;;;;8.25;4.47;;;3.40;67.40;;;;;;4962058;28;20053;-90
2022/04/01 09:53:16;;;;;;;10.02;3.67;;;3.50;66.60;;;;;;4979684;28;20540;-89
2022/04/01 09:55:45;;;;;;;7.55;4.03;;;3.60;65.90;;;;;;4995839;28;20042;-89
2022/04/01 09:58:12;;;;;;;6.18;4.22;;;3.90;66.30;;;;;;4977857;28;20470;-90
2022/04/01 10:00:40;;;;;;;5.68;3.88;;;3.70;64.50;;;;;;5006246;28;20026;-89
2022/04/01 10:03:07;;;;;;;8.27;4.43;;;3.80;64.30;;;;;;4994268;28;20065;-89
2022/04/01 10:05:35;;;;;;;6.45;4.28;;;3.70;63.90;;;;;;4988526;28;20049;-88
2022/04/01 10:08:03;;;;;;;6.82;4.25;;;3.80;63.90;;;;;;4993486;28;20050;-93
2022/04/01 10:10:30;;;;;;;6.22;3.67;;;3.80;64.20;;;;;;4987350;28;20054;-88
2022/04/01 10:13:04;;;;;;;6.28;3.70;;;3.80;64.80;;;;;;4980693;28;20140;-87
2022/04/01 10:18:55;;;;;;;5.95;3.28;;;3.80;65.00;;;;;;5001763;28;20046;-87
2022/04/01 10:21:22;;;;;;;5.35;3.03;;;3.80;65.00;;;;;;4972253;28;20054;-87
2022/04/01 10:24:04;;;;;;;4.38;2.38;;;3.90;65.00;;;;;;4980555;28;20421;-88
2022/04/01 10:26:33;;;;;;;4.60;2.75;;;3.80;64.40;;;;;;4993887;28;20104;-87
2022/04/01 10:29:02;;;;;;;3.78;2.40;;;4.10;63.40;;;;;;4976261;28;20054;-88
2022/04/01 10:31:28;;;;;;;6.82;3.00;;;3.80;62.70;;;;;;4993416;28;20142;-87
2022/04/01 10:34:23;;;;;;;4.00;2.30;;;3.80;62.60;;;;;;4993339;28;20125;-88
2022/04/01 10:36:59;;;;;;;4.18;2.30;;;3.80;62.90;;;;;;4993596;28;20109;-87
2022/04/01 10:39:25;;;;;;;3.35;2.33;;;3.70;62.80;;;;;;4944410;28;20053;-88
2022/04/01 10:42:12;;;;;;;5.25;2.50;;;3.70;62.80;;;;;;5004072;28;20039;-89
2022/04/01 10:44:57;;;;;;;4.70;2.45;;;3.80;63.50;;;;;;4970345;28;20054;-87
2022/04/01 10:51:36;;;;;;;4.38;2.53;;;3.80;63.50;;;;;;4983269;28;20137;-88
2022/04/01 10:53:37;;;;;;;5.20;2.60;;;4.20;65.00;;;;;;4997139;28;20470;-89
2022/04/01 10:56:21;;;;;;;3.67;2.00;;;3.80;64.40;;;;;;4990793;28;20034;-88
2022/04/01 10:59:18;;;;;;;5.67;2.53;;;3.80;64.50;;;;;;4995359;28;20061;-89
2022/04/01 11:01:53;;;;;;;4.95;2.28;;;3.80;64.30;;;;;;4979614;28;20309;-88
2022/04/01 11:04:19;;;;;;;4.47;2.60;;;4.20;65.10;;;;;;4994726;28;20425;-87
2022/04/01 11:07:00;;;;;;;3.85;2.38;;;3.70;64.90;;;;;;4977149;28;20065;-87
2022/04/01 11:09:51;;;;;;;4.35;2.10;;;3.70;65.30;;;;;;4978602;28;20061;-87
2022/04/01 11:12:21;;;;;;;5.47;2.53;;;3.70;65.90;;;;;;4996871;28;20039;-88
2022/04/01 11:14:59;;;;;;;4.10;2.40;;;3.60;65.80;;;;;;4963896;28;20073;-86
2022/04/01 11:17:28;;;;;;;4.07;2.25;;;3.70;66.30;;;;;;4990754;28;20069;-87
2022/04/01 11:20:10;;;;;;;4.43;2.00;;;3.60;66.40;;;;;;4997226;28;20118;-87
2022/04/01 11:22:43;;;;;;;3.55;1.90;;;3.70;66.70;;;;;;4986643;28;20061;-90
2022/04/01 11:25:33;;;;;;;3.92;1.90;;;3.70;66.70;;;;;;4973713;28;20058;-91
2022/04/01 11:28:01;;;;;;;5.93;1.90;;;4.10;67.30;;;;;;4976883;28;20421;-87
2022/04/01 11:30:32;;;;;;;3.90;1.95;;;3.80;66.90;;;;;;4997198;28;20050;-92
2022/04/01 11:33:01;;;;;;;6.90;2.03;;;3.70;67.00;;;;;;4979430;28;20043;-91
2022/04/01 11:35:35;;;;;;;2.83;1.52;;;3.80;66.80;;;;;;4981340;28;20046;-91
2022/04/01 11:38:02;;;;;;;3.40;2.13;;;3.80;66.20;;;;;;4980350;28;20054;-93
2022/04/01 11:40:33;;;;;;;2.80;1.90;;;4.30;65.30;;;;;;4976942;28;20061;-91
2022/04/01 11:43:08;;;;;;;4.93;1.88;;;4.20;65.40;;;;;;4995246;28;20097;-90
2022/04/01 11:45:35;;;;;;;3.20;1.90;;;4.00;64.90;;;;;;4998452;28;20038;-90
2022/04/01 11:48:12;;;;;;;4.80;2.03;;;4.10;64.80;;;;;;4964031;28;20138;-89
2022/04/01 11:50:43;;;;;;;3.65;1.88;;;4.30;65.10;;;;;;4980308;28;20050;-89
2022/04/01 11:53:21;;;;;;;4.15;1.73;;;4.10;65.80;;;;;;4980832;28;20046;-90
2022/04/01 11:55:47;;;;;;;3.80;1.77;;;4.10;66.10;;;;;;4965202;28;20071;-91
2022/04/01 11:58:13;;;;;;;3.15;1.70;;;4.10;65.50;;;;;;4997955;28;20088;-91
2022/04/01 12:00:39;;;;;;;3.75;2.00;;;4.60;65.70;;;;;;4964750;28;20081;-91
2022/04/01 12:03:07;;;;;;;3.15;1.70;;;4.10;65.60;;;;;;4982193;28;20039;-90
2022/04/01 12:05:33;;;;;;;4.85;1.88;;;4.20;66.20;;;;;;4981075;28;20046;-93
2022/04/01 12:10:54;;;;;;;3.13;1.90;;;4.30;66.00;;;;;;4996748;28;20508;-90
2022/04/01 12:13:21;;;;;;;4.40;1.75;;;4.40;66.30;;;;;;4978886;28;20047;-89
2022/04/01 12:16:27;;;;;;;3.60;2.05;;;4.50;66.30;;;;;;4961440;28;20085;-88
2022/04/01 12:18:53;;;;;;;3.67;1.58;;;4.50;65.20;;;;;;4975837;28;20490;-86
2022/04/01 12:21:23;;;;;;;3.63;1.73;;;4.50;65.10;;;;;;4978892;28;20038;-85
2022/04/01 12:23:50;;;;;;;4.07;1.80;;;4.90;64.60;;;;;;4993309;28;20074;-85
2022/04/01 12:26:18;;;;;;;4.25;1.52;;;4.70;64.90;;;;;;4978701;28;20474;-86
2022/04/01 12:28:47;;;;;;;4.88;1.40;;;4.60;64.40;;;;;;4978547;28;20506;-86
2022/04/01 12:31:24;;;;;;;3.42;1.50;;;4.60;63.20;;;;;;4996202;28;20050;-86
2022/04/01 12:33:52;;;;;;;2.78;1.70;;;4.60;62.90;;;;;;4978396;28;20057;-88
2022/04/01 12:36:32;;;;;;;4.38;2.22;;;4.60;62.80;;;;;;4979160;28;20058;-88
2022/04/01 12:39:09;;;;;;;4.20;1.60;;;5.00;62.60;;;;;;4963080;28;20046;-87
2022/04/01 12:41:35;;;;;;;4.28;1.73;;;4.70;62.30;;;;;;4979392;28;20046;-91
2022/04/01 12:44:13;;;;;;;3.22;1.75;;;5.10;62.10;;;;;;4979303;28;20069;-88
2022/04/01 12:50:36;;;;;;;3.85;1.98;;;4.80;62.00;;;;;;4988873;28;20053;-91
2022/04/01 12:53:12;;;;;;;4.28;1.80;;;4.80;62.20;;;;;;4998289;28;20038;-89
2022/04/01 12:55:38;;;;;;;4.10;2.20;;;4.80;62.10;;;;;;4981331;28;20128;-90
2022/04/01 12:58:08;;;;;;;3.28;1.90;;;4.80;62.10;;;;;;4981008;28;20038;-90
2022/04/01 13:00:34;;;;;;;4.25;1.48;;;5.00;62.80;;;;;;4999603;28;20050;-91
2022/04/01 13:03:02;;;;;;;5.20;1.88;;;4.90;63.10;;;;;;4988866;28;20069;-88
2022/04/01 13:05:28;;;;;;;5.07;1.73;;;4.90;63.30;;;;;;5009233;28;20030;-92
2022/04/01 13:07:54;;;;;;;6.25;1.98;;;4.90;63.50;;;;;;4981788;28;20042;-92
2022/04/01 13:10:21;;;;;;;3.75;1.98;;;4.80;63.60;;;;;;4963820;28;20042;-91
2022/04/01 13:12:48;;;;;;;4.10;1.70;;;4.80;63.50;;;;;;5000204;28;20465;-90
2022/04/01 13:18:40;;;;;;;;;;;4.90;63.10;;;;;;4996297;28;20112;-91
2022/04/01 13:21:05;;;;;;;3.58;1.98;;;4.80;63.70;;;;;;4994609;28;19930;-92
2022/04/01 13:23:35;;;;;;;4.20;1.92;;;4.80;64.40;;;;;;4978950;28;20086;-93
2022/04/01 13:26:01;;;;;;;4.00;2.00;;;4.90;63.30;;;;;;4986335;28;20092;-92
2022/04/01 13:28:29;;;;;;;4.93;1.77;;;4.90;63.20;;;;;;4988610;28;20531;-90
2022/04/01 13:31:06;;;;;;;3.33;1.83;;;5.00;63.70;;;;;;5006535;28;20058;-92
2022/04/01 13:33:32;;;;;;;3.03;1.70;;;4.90;62.40;;;;;;4990298;28;20062;-91
2022/04/01 13:35:58;;;;;;;7.28;2.20;;;5.10;61.50;;;;;;5006005;28;20050;-93